Time;durP1;ratioP1;P1;durP2;ratioP2;P2;SDS_P1;SDS_P2;PMS_P1;PMS_P2;Temp;Humidity;BMP_temperature;BMP_pressure;BME280_temperature;BME280_humidity;BME280_pressure;Samples;Min_cycle;Max_cycle;Signal;HPM_P1;HPM_P2
2021/04/13 00:01:14;;;;;;;4.13;3.13;;;;;;;-1.38;77.20;96629.84;4914746;29;20221;-75
2021/04/13 00:03:51;;;;;;;4.53;3.60;;;;;;;-1.42;77.68;96629.06;4915286;29;20233;-76
2021/04/13 00:06:32;;;;;;;5.60;3.60;;;;;;;-1.45;78.04;96624.91;4914800;29;20235;-75
2021/04/13 00:09:05;;;;;;;6.37;3.70;;;;;;;-1.45;78.32;96635.13;4915415;29;20195;-76
2021/04/13 00:11:31;;;;;;;4.50;3.70;;;;;;;-1.46;78.20;96630.91;4915178;29;20179;-75
2021/04/13 00:13:59;;;;;;;5.63;3.93;;;;;;;-1.47;77.22;96630.94;4898354;29;20620;-75
2021/04/13 00:16:29;;;;;;;8.33;4.83;;;;;;;-1.46;77.64;96630.91;4913923;29;20307;-75
2021/04/13 00:18:54;;;;;;;6.57;3.90;;;;;;;-1.45;78.05;96629.19;4914132;29;20190;-75
2021/04/13 00:21:32;;;;;;;5.47;3.67;;;;;;;-1.46;77.58;96617.34;4914142;29;20205;-75
2021/04/13 00:24:02;;;;;;;6.67;3.47;;;;;;;-1.44;77.75;96624.03;4914195;29;20206;-76
2021/04/13 00:26:29;;;;;;;5.50;3.70;;;;;;;-1.43;77.55;96622.31;4914835;29;20756;-74
2021/04/13 00:28:56;;;;;;;3.57;3.20;;;;;;;-1.45;77.07;96619.00;4914222;29;20213;-76
2021/04/13 00:31:45;;;;;;;5.90;3.40;;;;;;;-1.46;77.21;96620.72;4914675;29;20182;-75
2021/04/13 00:34:19;;;;;;;5.40;3.63;;;;;;;-1.48;76.87;96625.03;4941093;28;20218;-76
2021/04/13 00:36:45;;;;;;;4.40;3.90;;;;;;;-1.52;77.06;96620.91;5012624;28;20308;-76
2021/04/13 00:39:18;;;;;;;5.37;3.50;;;;;;;-1.53;77.61;96624.31;4994735;28;20221;-76
2021/04/13 00:41:46;;;;;;;4.10;3.20;;;;;;;-1.61;77.55;96621.19;5012552;28;20188;-76
2021/04/13 00:44:13;;;;;;;3.63;3.33;;;;;;;-1.62;77.73;96627.16;4994706;28;20325;-76
2021/04/13 00:46:51;;;;;;;4.90;3.70;;;;;;;-1.67;77.72;96623.94;4994701;28;20186;-76
2021/04/13 00:49:17;;;;;;;7.00;3.50;;;;;;;-1.70;77.49;96626.56;4994760;28;20203;-76
2021/04/13 00:51:45;;;;;;;5.73;3.60;;;;;;;-1.70;77.73;96626.56;4994524;28;20183;-76
2021/04/13 00:54:26;;;;;;;3.90;3.17;;;;;;;-1.75;77.87;96625.88;4977931;28;20305;-76
2021/04/13 00:56:52;;;;;;;4.53;3.60;;;;;;;-1.76;77.84;96619.97;5011021;28;20321;-76
2021/04/13 00:59:19;;;;;;;5.60;3.67;;;;;;;-1.80;77.34;96626.00;5027386;28;20179;-76
2021/04/13 01:01:51;;;;;;;6.77;3.93;;;;;;;-1.84;77.81;96621.91;4994492;28;20642;-76
2021/04/13 01:04:21;;;;;;;4.10;3.60;;;;;;;-1.85;77.72;96616.88;4993991;28;20198;-76
2021/04/13 01:06:57;;;;;;;5.17;3.80;;;;;;;-1.87;77.98;96626.25;5010618;28;20615;-76
2021/04/13 01:09:25;;;;;;;7.33;3.67;;;;;;;-1.89;77.60;96628.00;5011970;28;20174;-75
2021/04/13 01:12:02;;;;;;;5.60;4.00;;;;;;;-1.95;77.99;96626.47;5012281;28;20178;-75
2021/04/13 01:14:29;;;;;;;3.80;3.50;;;;;;;-1.97;77.20;96623.13;5011610;28;20234;-75
2021/04/13 01:16:58;;;;;;;5.73;4.20;;;;;;;-1.97;77.58;96624.84;5010546;28;20178;-75
2021/04/13 01:19:36;;;;;;;5.47;4.20;;;;;;;-2.01;77.67;96621.56;5010539;28;20187;-76
2021/04/13 01:22:13;;;;;;;6.17;4.13;;;;;;;-2.04;78.07;96625.03;5010262;28;20647;-75
2021/04/13 01:24:46;;;;;;;4.27;3.33;;;;;;;-2.09;77.58;96619.25;5026470;28;20757;-75
2021/04/13 01:27:12;;;;;;;5.23;4.10;;;;;;;-2.12;78.15;96615.94;5026098;28;20260;-75
2021/04/13 01:29:38;;;;;;;5.73;4.60;;;;;;;-2.11;78.39;96617.63;5010452;28;20312;-75
2021/04/13 01:32:05;;;;;;;4.73;4.20;;;;;;;-2.12;78.19;96611.72;5010556;28;20229;-75
2021/04/13 01:34:44;;;;;;;5.57;4.23;;;;;;;-2.11;78.26;96612.56;5026512;28;20214;-74
2021/04/13 01:37:19;;;;;;;5.20;3.87;;;;;;;-2.16;77.87;96615.22;5011612;28;20168;-75
2021/04/13 01:39:59;;;;;;;5.90;4.40;;;;;;;-2.18;78.43;96614.44;5011700;28;20711;-75
2021/04/13 01:42:27;;;;;;;5.03;3.87;;;;;;;-2.19;78.32;96619.56;5026887;28;20537;-75
2021/04/13 01:44:57;;;;;;;6.90;4.67;;;;;;;-2.18;78.00;96613.59;5030612;28;20241;-75
2021/04/13 01:47:24;;;;;;;5.67;4.30;;;;;;;-2.20;78.27;96620.44;5030813;28;20673;-75
2021/04/13 01:49:56;;;;;;;4.83;4.30;;;;;;;-2.15;77.90;96619.41;5014179;28;20269;-74
2021/04/13 01:52:25;;;;;;;5.63;4.63;;;;;;;-2.15;78.08;96621.97;5015554;28;20195;-74
2021/04/13 01:54:50;;;;;;;4.90;4.40;;;;;;;-2.11;78.70;96623.56;5030396;28;20216;-74
2021/04/13 01:57:48;;;;;;;6.33;4.30;;;;;;;-2.09;78.06;96620.97;4997892;28;20264;-74
2021/04/13 02:00:17;;;;;;;6.53;4.17;;;;;;;-2.09;78.73;96623.50;4938270;29;20196;-74
2021/04/13 02:02:46;;;;;;;6.53;4.33;;;;;;;-2.11;78.54;96626.09;4938660;29;20297;-74
2021/04/13 02:05:14;;;;;;;6.70;4.47;;;;;;;-2.16;79.07;96630.47;4938299;29;20264;-75
2021/04/13 02:07:59;;;;;;;5.30;4.23;;;;;;;-2.23;78.37;96628.97;4938859;29;20179;-74
2021/04/13 02:10:34;;;;;;;7.93;4.30;;;;;;;-2.22;78.05;96638.28;4954459;29;20204;-73
2021/04/13 02:13:05;;;;;;;5.53;3.80;;;;;;;-2.25;78.04;96633.28;4939026;29;20184;-75
2021/04/13 02:16:09;;;;;;;5.90;4.10;;;;;;;-2.22;78.27;96637.44;4938182;29;20215;-75
2021/04/13 02:18:39;;;;;;;7.17;4.80;;;;;;;-2.21;78.20;96641.66;4938422;29;20342;-75
2021/04/13 02:21:14;;;;;;;4.63;3.90;;;;;;;-2.22;78.43;96643.38;4938154;29;20196;-74
2021/04/13 02:23:46;;;;;;;7.67;4.43;;;;;;;-2.22;78.20;96651.00;4938312;29;20211;-75
2021/04/13 02:26:12;;;;;;;5.97;4.10;;;;;;;-2.23;77.94;96644.25;4938054;29;20179;-75
2021/04/13 02:28:37;;;;;;;5.50;4.50;;;;;;;-2.25;78.61;96643.47;4938163;29;20199;-75
2021/04/13 02:31:11;;;;;;;6.13;4.50;;;;;;;-2.25;78.36;96645.19;4938138;29;20189;-75
2021/04/13 02:33:39;;;;;;;5.40;4.80;;;;;;;-2.29;78.46;96640.19;4938218;29;20271;-75
2021/04/13 02:36:14;;;;;;;5.87;4.87;;;;;;;-2.24;78.29;96645.13;4962578;28;20213;-73
2021/04/13 02:38:46;;;;;;;8.53;4.80;;;;;;;-2.19;78.93;96650.94;5030256;28;20182;-76
2021/04/13 02:41:19;;;;;;;6.87;4.97;;;;;;;-2.15;79.02;96639.78;5013939;28;20647;-75
2021/04/13 02:43:49;;;;;;;6.53;5.30;;;;;;;-2.04;78.76;96645.38;5029789;28;20625;-75
2021/04/13 02:46:18;;;;;;;7.13;4.57;;;;;;;-2.03;78.40;96642.00;5013091;28;20204;-73
2021/04/13 02:49:16;;;;;;;7.03;5.20;;;;;;;-2.00;79.11;96635.97;5029656;28;20280;-74
2021/04/13 02:51:47;;;;;;;7.67;4.90;;;;;;;-2.02;79.42;96635.19;4937412;29;20783;-75
2021/04/13 02:54:20;;;;;;;7.07;4.90;;;;;;;-2.01;79.01;96630.03;4936940;29;20236;-75
2021/04/13 02:56:48;;;;;;;6.40;5.30;;;;;;;-2.01;78.69;96631.75;4953821;29;20211;-75
2021/04/13 02:59:13;;;;;;;7.50;4.93;;;;;;;-2.00;78.66;96641.06;4937881;29;20690;-75
2021/04/13 03:01:50;;;;;;;6.63;4.93;;;;;;;-2.00;78.31;96641.06;4953652;29;20216;-75
2021/04/13 03:04:16;;;;;;;5.30;4.20;;;;;;;-2.03;78.25;96648.78;4937205;29;20215;-74
2021/04/13 03:06:44;;;;;;;5.77;4.93;;;;;;;-2.02;78.27;96653.84;4937475;29;20297;-75
2021/04/13 03:09:10;;;;;;;7.63;5.13;;;;;;;-2.03;78.25;96648.78;4937432;29;20217;-75
2021/04/13 03:11:36;;;;;;;5.67;4.90;;;;;;;-2.05;77.98;96653.06;4937453;29;20224;-75
2021/04/13 03:14:03;;;;;;;7.13;5.10;;;;;;;-2.09;78.15;96651.50;4937233;29;20223;-75
2021/04/13 03:16:33;;;;;;;5.63;4.63;;;;;;;-2.11;78.56;96653.28;4953158;29;20712;-75
2021/04/13 03:18:59;;;;;;;5.67;5.03;;;;;;;-2.12;78.66;96657.53;4937251;29;20189;-75
2021/04/13 03:21:30;;;;;;;8.33;5.43;;;;;;;-2.12;78.43;96654.13;4937111;29;20200;-75
2021/04/13 03:23:57;;;;;;;7.23;5.13;;;;;;;-2.06;78.57;96659.88;4937337;29;20215;-75
2021/04/13 03:26:26;;;;;;;6.67;5.43;;;;;;;-2.02;78.01;96658.09;4945308;28;20195;-75
2021/04/13 03:29:00;;;;;;;8.27;5.53;;;;;;;-2.01;78.56;96662.31;5012390;28;20190;-75
2021/04/13 03:31:31;;;;;;;8.00;5.40;;;;;;;-1.97;79.03;96661.31;5029278;28;20533;-74
2021/04/13 03:33:58;;;;;;;6.90;5.07;;;;;;;-1.89;78.96;96668.75;5012450;28;20197;-75
2021/04/13 03:36:24;;;;;;;8.30;5.53;;;;;;;-1.87;78.65;96666.97;5028733;28;20175;-75
2021/04/13 03:38:56;;;;;;;5.97;4.80;;;;;;;-1.87;78.22;96665.25;5012407;28;20591;-75
2021/04/13 03:41:22;;;;;;;6.30;5.30;;;;;;;-1.85;78.30;96660.97;5012293;28;20218;-75
2021/04/13 03:43:55;;;;;;;6.97;5.07;;;;;;;-1.83;78.65;96668.56;5012188;28;20293;-74
2021/04/13 03:46:20;;;;;;;6.77;4.90;;;;;;;-1.86;78.67;96664.38;5012073;28;20207;-75
2021/04/13 03:48:48;;;;;;;7.70;6.00;;;;;;;-1.90;78.33;96662.00;5012204;28;20217;-74
2021/04/13 03:51:21;;;;;;;7.57;4.90;;;;;;;-1.89;78.79;96666.19;5012191;28;20190;-75
2021/04/13 03:53:47;;;;;;;8.00;5.27;;;;;;;-1.92;78.86;96663.75;5012243;28;20578;-74
2021/04/13 03:56:16;;;;;;;7.40;5.60;;;;;;;-1.93;78.23;96672.28;5011788;28;20665;-75
2021/04/13 03:58:50;;;;;;;7.00;5.30;;;;;;;-1.96;78.29;96672.34;5028524;28;20187;-75
2021/04/13 04:01:20;;;;;;;7.03;5.93;;;;;;;-1.98;78.26;96669.00;5028627;28;20244;-74
2021/04/13 04:04:01;;;;;;;7.37;5.53;;;;;;;-1.98;78.63;96669.84;5011767;28;20286;-75
2021/04/13 04:07:00;;;;;;;8.47;5.73;;;;;;;-2.01;78.25;96668.22;5027950;28;20179;-75
2021/04/13 04:09:28;;;;;;;7.27;6.00;;;;;;;-2.02;78.75;96676.75;4935852;29;20243;-75
2021/04/13 04:11:53;;;;;;;9.77;6.87;;;;;;;-2.03;78.71;96671.69;4952423;29;20264;-74
2021/04/13 04:14:22;;;;;;;8.43;5.73;;;;;;;-2.02;78.27;96674.19;4935714;29;20323;-76
2021/04/13 04:16:47;;;;;;;7.70;6.53;;;;;;;-2.01;78.55;96675.88;4952142;29;20180;-75
2021/04/13 04:19:18;;;;;;;9.77;6.50;;;;;;;-2.02;78.63;96676.75;4936078;29;20696;-74
2021/04/13 04:21:46;;;;;;;8.73;6.63;;;;;;;-2.00;78.59;96684.34;4933838;29;20195;-75
2021/04/13 04:24:28;;;;;;;6.53;5.77;;;;;;;-2.01;78.55;96688.59;4946425;28;20548;-75
2021/04/13 04:27:05;;;;;;;20.63;12.03;;;;;;;-1.95;78.13;96684.19;4935567;29;20208;-75
2021/04/13 04:29:51;;;;;;;33.33;20.37;;;;;;;-1.91;77.92;96686.63;4935822;29;20285;-75
2021/04/13 04:32:41;;;;;;;27.07;15.40;;;;;;;-1.88;78.21;96688.22;4936235;29;21002;-75
2021/04/13 04:35:09;;;;;;;15.80;9.93;;;;;;;-1.85;77.80;96694.09;4964388;28;20228;-75
2021/04/13 04:37:56;;;;;;;7.93;6.33;;;;;;;-1.84;78.36;96697.47;4954914;28;20656;-75
2021/04/13 04:40:27;;;;;;;8.37;6.70;;;;;;;-1.77;77.68;96698.94;4940270;29;20207;-74
2021/04/13 04:42:55;;;;;;;7.57;6.37;;;;;;;-1.74;78.33;96693.75;4950827;28;20273;-74
2021/04/13 04:45:45;;;;;;;9.10;6.57;;;;;;;-1.71;77.97;96689.41;4964351;28;20216;-74
2021/04/13 04:48:19;;;;;;;8.90;6.30;;;;;;;-1.65;78.27;96695.19;4981852;28;20180;-74
2021/04/13 04:50:46;;;;;;;6.80;5.50;;;;;;;-1.62;78.18;96688.28;4983846;28;20672;-74
2021/04/13 04:53:12;;;;;;;7.60;5.50;;;;;;;-1.59;78.08;96698.41;4994628;28;20195;-75
2021/04/13 04:55:37;;;;;;;8.47;6.67;;;;;;;-1.56;78.24;96693.22;4985652;28;20206;-75
2021/04/13 04:58:02;;;;;;;10.80;6.63;;;;;;;-1.50;77.87;96700.69;4981357;28;20230;-75
2021/04/13 05:00:28;;;;;;;9.03;5.80;;;;;;;-1.46;77.88;96703.97;4999188;28;20183;-75
2021/04/13 05:02:53;;;;;;;8.97;6.97;;;;;;;-1.39;77.73;96707.16;4990749;28;20267;-75
2021/04/13 05:05:19;;;;;;;9.63;7.57;;;;;;;-1.34;77.84;96711.22;4989022;28;20204;-74
2021/04/13 05:07:44;;;;;;;15.53;11.33;;;;;;;-1.27;78.01;96704.22;4992324;28;20674;-74
2021/04/13 05:10:10;;;;;;;15.00;10.30;;;;;;;-1.20;77.69;96714.19;4987198;28;20194;-75
2021/04/13 05:12:35;;;;;;;11.50;8.30;;;;;;;-1.07;77.13;96717.16;4981137;28;20199;-74
2021/04/13 05:15:00;;;;;;;10.17;9.00;;;;;;;-0.94;77.10;96710.81;4988869;28;20222;-74
2021/04/13 05:17:26;;;;;;;11.57;8.50;;;;;;;-0.63;76.51;96717.44;4996335;28;20177;-74
2021/04/13 05:19:51;;;;;;;10.90;8.50;;;;;;;-0.49;75.80;96720.38;4992456;28;20677;-75
2021/04/13 05:22:16;;;;;;;12.73;8.27;;;;;;;-0.33;75.25;96720.69;4987174;28;20228;-75
2021/04/13 05:24:43;;;;;;;16.03;12.17;;;;;;;-0.16;75.07;96720.94;4985176;28;20207;-74
2021/04/13 05:27:08;;;;;;;22.27;14.37;;;;;;;-0.09;74.60;96726.63;4988643;28;20187;-75
2021/04/13 05:29:34;;;;;;;16.53;13.77;;;;;;;0.03;74.29;96727.94;4986113;28;20214;-75
2021/04/13 05:31:59;;;;;;;18.97;14.77;;;;;;;0.14;73.88;96734.31;4987354;28;20724;-74
2021/04/13 05:34:24;;;;;;;16.27;12.70;;;;;;;0.28;73.64;96739.78;4982598;28;20289;-75
2021/04/13 05:36:52;;;;;;;12.87;10.57;;;;;;;0.28;73.19;96739.78;4984582;28;20240;-74
2021/04/13 05:39:19;;;;;;;14.30;9.90;;;;;;;0.40;72.84;96741.03;4987024;28;20229;-74
2021/04/13 05:41:44;;;;;;;11.57;9.83;;;;;;;0.51;72.97;96748.28;4985220;28;20195;-75
2021/04/13 05:44:10;;;;;;;17.63;12.50;;;;;;;0.48;72.31;96746.69;4986998;28;20297;-75
2021/04/13 05:46:35;;;;;;;15.47;11.20;;;;;;;0.65;72.39;96750.34;4985114;28;20556;-75
2021/04/13 05:49:01;;;;;;;17.17;11.23;;;;;;;0.61;72.54;96754.72;4985609;28;20183;-75
2021/04/13 05:51:28;;;;;;;15.17;12.10;;;;;;;0.53;72.64;96757.59;4983925;28;20210;-75
2021/04/13 05:53:53;;;;;;;15.63;10.97;;;;;;;0.42;72.67;96757.13;4981373;28;20508;-75
2021/04/13 05:56:27;;;;;;;17.73;13.97;;;;;;;0.55;72.80;96758.38;4987475;28;20277;-75
2021/04/13 05:58:55;;;;;;;18.40;14.23;;;;;;;0.64;73.13;96759.75;4993973;28;20314;-75
2021/04/13 06:01:23;;;;;;;19.43;13.90;;;;;;;0.38;73.17;96752.22;4993973;28;20178;-76
2021/04/13 06:03:48;;;;;;;22.07;16.67;;;;;;;0.47;73.67;96762.94;4993972;28;20234;-74
2021/04/13 06:06:14;;;;;;;21.70;16.17;;;;;;;0.25;74.65;96760.31;4993562;28;20199;-75
2021/04/13 06:08:39;;;;;;;24.80;16.43;;;;;;;0.39;74.67;96770.03;4993890;28;20262;-75
2021/04/13 06:11:06;;;;;;;27.07;17.67;;;;;;;0.23;74.71;96763.81;4993911;28;20278;-74
2021/04/13 06:13:31;;;;;;;27.73;16.90;;;;;;;0.20;74.99;96769.88;4977404;28;20190;-74
2021/04/13 06:15:56;;;;;;;23.37;17.20;;;;;;;0.32;74.96;96773.69;4993437;28;20230;-74
2021/04/13 06:18:23;;;;;;;24.43;17.70;;;;;;;0.62;74.38;96766.66;5011345;28;20171;-74
2021/04/13 06:20:48;;;;;;;25.57;17.57;;;;;;;0.39;74.11;96771.75;4993779;28;20203;-74
2021/04/13 06:23:14;;;;;;;25.30;18.03;;;;;;;0.72;74.20;96770.53;4993705;28;20329;-74
2021/04/13 06:25:39;;;;;;;22.67;16.87;;;;;;;0.75;73.37;96774.66;5030642;28;20746;-75
2021/04/13 06:28:05;;;;;;;23.70;16.87;;;;;;;1.02;72.24;96773.59;5004222;28;20700;-75
2021/04/13 06:30:31;;;;;;;22.03;15.80;;;;;;;1.08;71.50;96775.09;5010734;28;20183;-74
2021/04/13 06:32:59;;;;;;;24.67;17.03;;;;;;;1.12;72.18;96779.19;4997203;28;20549;-74
2021/04/13 06:35:25;;;;;;;23.10;16.63;;;;;;;0.78;72.32;96780.50;5014185;28;20203;-74
2021/04/13 06:37:53;;;;;;;21.13;15.63;;;;;;;0.71;71.61;96784.19;4997164;28;20174;-74
2021/04/13 06:40:49;;;;;;;24.43;16.80;;;;;;;0.89;72.13;96780.09;4996767;28;20179;-75
2021/04/13 06:43:28;;;;;;;19.77;15.20;;;;;;;0.94;71.91;96780.75;5013325;28;20175;-74
2021/04/13 06:45:53;;;;;;;20.53;15.47;;;;;;;1.07;72.44;96783.69;4996888;28;20169;-74
2021/04/13 06:48:44;;;;;;;21.90;16.03;;;;;;;1.03;70.55;96787.22;5014604;28;20557;-74
2021/04/13 06:51:26;;;;;;;18.83;13.60;;;;;;;0.77;71.05;96783.94;5003254;28;20190;-75
2021/04/13 06:54:06;;;;;;;18.80;14.17;;;;;;;0.73;71.34;96782.41;4997090;28;20195;-74
2021/04/13 06:56:33;;;;;;;18.33;14.63;;;;;;;0.85;71.57;96792.16;4996655;28;20273;-74
2021/04/13 06:59:24;;;;;;;20.60;14.57;;;;;;;1.04;71.30;96784.59;4996045;28;20326;-74
2021/04/13 07:02:00;;;;;;;21.37;15.43;;;;;;;0.76;71.35;96791.69;4995369;28;20258;-74
2021/04/13 07:04:34;;;;;;;20.00;14.67;;;;;;;0.69;71.76;96785.13;4995152;28;20222;-74
2021/04/13 07:07:05;;;;;;;20.23;14.50;;;;;;;0.40;73.08;96788.75;5011839;28;20638;-74
2021/04/13 07:09:38;;;;;;;21.27;14.87;;;;;;;0.21;73.51;96798.81;5010028;28;20262;-72
2021/04/13 07:12:14;;;;;;;20.03;14.50;;;;;;;0.30;73.36;96792.53;4995288;28;20194;-74
2021/04/13 07:14:59;;;;;;;20.77;14.93;;;;;;;0.36;73.41;96798.28;4995644;28;20237;-74
2021/04/13 07:17:28;;;;;;;17.60;13.73;;;;;;;0.20;73.64;96800.53;4995691;28;20182;-74
2021/04/13 07:20:00;;;;;;;23.77;16.37;;;;;;;0.36;72.85;96795.72;5012073;28;20623;-74
2021/04/13 07:22:29;;;;;;;16.40;12.87;;;;;;;0.36;72.99;96794.88;5012103;28;20594;-74
2021/04/13 07:25:21;;;;;;;18.13;14.03;;;;;;;0.59;71.38;96797.41;4995328;28;20203;-73
2021/04/13 07:27:51;;;;;;;20.90;13.20;;;;;;;0.72;70.69;96797.81;4995260;28;20322;-76
2021/04/13 07:30:32;;;;;;;16.90;12.87;;;;;;;0.78;70.53;96800.94;4994967;28;20207;-74
2021/04/13 07:32:59;;;;;;;19.10;13.90;;;;;;;0.70;71.25;96797.84;4986772;28;20187;-74
2021/04/13 07:35:29;;;;;;;16.17;12.93;;;;;;;0.95;70.55;96795.19;4991977;28;20218;-73
2021/04/13 07:37:56;;;;;;;13.00;10.93;;;;;;;0.99;69.75;96808.72;4994968;28;20175;-72
2021/04/13 07:40:29;;;;;;;13.67;10.57;;;;;;;1.24;67.98;96800.94;4995856;28;20175;-77
2021/04/13 07:43:04;;;;;;;11.17;9.33;;;;;;;1.31;67.08;96798.03;4979058;28;20658;-76
2021/04/13 07:45:53;;;;;;;13.03;11.07;;;;;;;1.23;67.82;96802.63;4995142;28;20194;-76
2021/04/13 07:48:19;;;;;;;10.57;9.27;;;;;;;1.51;66.37;96806.69;5001245;28;20191;-73
2021/04/13 07:50:57;;;;;;;10.20;8.83;;;;;;;1.66;65.11;96806.03;5001838;28;20244;-74
2021/04/13 07:53:33;;;;;;;10.67;8.57;;;;;;;1.74;63.95;96804.00;5009055;28;20191;-75
2021/04/13 07:56:35;;;;;;;9.77;8.40;;;;;;;1.86;63.83;96803.50;5008394;28;20224;-74
2021/04/13 07:59:39;;;;;;;13.17;9.53;;;;;;;1.80;65.28;96808.88;4896183;29;20241;-74
2021/04/13 08:02:04;;;;;;;12.73;10.03;;;;;;;2.29;62.76;96806.78;4895801;29;20186;-74
2021/04/13 08:04:31;;;;;;;10.53;9.20;;;;;;;2.35;62.63;96808.25;4911929;29;20757;-74
2021/04/13 08:07:09;;;;;;;11.03;9.10;;;;;;;2.48;61.32;96809.41;4912465;29;20222;-75
2021/04/13 08:10:02;;;;;;;10.53;9.43;;;;;;;2.53;61.29;96813.41;4912319;29;20641;-74
2021/04/13 08:12:32;;;;;;;12.10;10.10;;;;;;;2.35;60.81;96803.97;4910231;29;20598;-74
2021/04/13 08:15:11;;;;;;;12.20;10.17;;;;;;;2.07;61.45;96804.31;4895923;29;20234;-75
2021/04/13 08:17:58;;;;;;;12.97;9.67;;;;;;;2.19;61.96;96808.09;4893518;29;20192;-74
2021/04/13 08:20:30;;;;;;;10.60;9.50;;;;;;;1.81;63.25;96813.09;4914390;29;20194;-74
2021/04/13 08:22:57;;;;;;;12.40;10.43;;;;;;;1.64;63.30;96818.06;4912915;29;20730;-74
2021/04/13 08:25:30;;;;;;;13.60;9.87;;;;;;;1.84;63.53;96812.97;4912914;29;20194;-74
2021/04/13 08:28:16;;;;;;;11.03;9.87;;;;;;;1.70;62.36;96811.00;4897423;29;20195;-74
2021/04/13 08:34:18;;;;;;;12.67;10.57;;;;;;;1.55;65.47;96814.16;4899864;29;20818;-74
2021/04/13 08:36:52;;;;;;;13.37;9.90;;;;;;;1.56;63.45;96815.00;4994680;28;20588;-74
2021/04/13 08:39:32;;;;;;;12.17;8.83;;;;;;;1.49;61.74;96814.41;4994949;28;20207;-75
2021/04/13 08:42:18;;;;;;;14.70;9.97;;;;;;;1.59;62.58;96812.28;4993966;28;20206;-75
2021/04/13 08:44:49;;;;;;;12.93;9.77;;;;;;;2.10;61.19;96808.47;5009703;28;20630;-74
2021/04/13 08:47:22;;;;;;;14.17;10.00;;;;;;;2.35;60.08;96810.81;4993922;28;20187;-74
2021/04/13 08:49:55;;;;;;;12.00;9.40;;;;;;;2.46;59.02;96803.50;4994285;28;20187;-74
2021/04/13 08:52:27;;;;;;;11.30;9.43;;;;;;;2.63;59.13;96805.31;4993135;28;20829;-74
2021/04/13 08:55:15;;;;;;;10.60;8.40;;;;;;;2.70;56.25;96801.56;5011008;28;20230;-75
2021/04/13 08:57:44;;;;;;;14.73;11.47;;;;;;;2.80;54.85;96797.69;5023864;28;20253;-74
2021/04/13 09:00:32;;;;;;;11.87;9.07;;;;;;;2.90;55.50;96805.78;5026642;28;20187;-75
2021/04/13 09:02:59;;;;;;;11.27;9.67;;;;;;;2.81;54.67;96807.03;5010498;28;20210;-74
2021/04/13 09:05:27;;;;;;;12.80;10.90;;;;;;;2.58;55.42;96810.66;4990838;28;20204;-74
2021/04/13 09:07:59;;;;;;;10.20;8.33;;;;;;;2.70;55.33;96810.09;5009268;28;20183;-74
2021/04/13 09:10:43;;;;;;;11.17;9.57;;;;;;;3.05;54.46;96808.50;4993872;28;20286;-75
2021/04/13 09:13:13;;;;;;;13.83;11.23;;;;;;;3.10;54.36;96811.69;5013446;28;20187;-74
2021/04/13 09:15:52;;;;;;;13.37;9.10;;;;;;;2.71;55.31;96816.06;5011072;28;20215;-73
2021/04/13 09:18:26;;;;;;;12.23;9.30;;;;;;;2.87;55.78;96811.91;4977676;28;20234;-73
2021/04/13 09:21:14;;;;;;;11.00;8.73;;;;;;;2.86;55.60;96807.69;4993712;28;20183;-72
2021/04/13 09:23:56;;;;;;;12.47;9.93;;;;;;;2.54;54.15;96820.19;4993335;28;20579;-73
2021/04/13 09:26:24;;;;;;;9.83;8.17;;;;;;;2.59;53.13;96812.31;5003621;28;20186;-72
2021/04/13 09:28:56;;;;;;;10.13;8.57;;;;;;;2.70;53.25;96815.22;4977312;28;20256;-72
2021/04/13 09:31:28;;;;;;;10.73;8.03;;;;;;;2.69;54.02;96817.88;4987092;28;20217;-72
2021/04/13 09:34:07;;;;;;;10.17;7.83;;;;;;;2.48;54.22;96811.97;4994349;28;20206;-73
2021/04/13 09:37:00;;;;;;;11.57;8.17;;;;;;;2.66;54.10;96815.44;4993544;28;20207;-72
2021/04/13 09:39:38;;;;;;;9.23;8.23;;;;;;;3.04;52.85;96814.53;5011107;28;20321;-73
2021/04/13 09:42:16;;;;;;;11.73;8.17;;;;;;;3.38;50.78;96811.22;5011241;28;20186;-73
2021/04/13 09:45:03;;;;;;;11.03;8.00;;;;;;;3.55;49.23;96813.00;4993162;28;20215;-72
2021/04/13 09:48:04;;;;;;;10.53;8.73;;;;;;;3.89;50.13;96794.19;5020629;28;20549;-72
2021/04/13 09:50:42;;;;;;;10.00;8.97;;;;;;;3.91;50.76;96796.69;4980664;28;20175;-73
2021/04/13 09:53:31;;;;;;;12.57;9.33;;;;;;;3.41;51.77;96795.66;4993789;28;20183;-73
2021/04/13 09:56:21;;;;;;;10.77;8.30;;;;;;;3.63;52.06;96798.03;4993146;28;20209;-72
2021/04/13 09:59:08;;;;;;;11.53;8.40;;;;;;;3.46;50.45;96800.59;4956265;28;20200;-73
2021/04/13 10:01:49;;;;;;;10.03;8.23;;;;;;;2.98;50.50;96801.97;5010848;28;20260;-72
2021/04/13 10:04:35;;;;;;;9.27;8.10;;;;;;;2.93;51.36;96800.53;4996431;28;20685;-72
2021/04/13 10:07:35;;;;;;;9.37;8.37;;;;;;;2.70;51.78;96797.28;5021751;28;20548;-72
2021/04/13 10:10:04;;;;;;;10.03;8.10;;;;;;;2.94;51.59;96795.34;5014512;28;20191;-72
2021/04/13 10:12:50;;;;;;;8.30;7.47;;;;;;;2.88;51.07;96799.91;4997320;28;20187;-73
2021/04/13 10:15:37;;;;;;;10.03;7.17;;;;;;;2.86;49.45;96797.41;4996695;28;20222;-72
2021/04/13 10:18:40;;;;;;;9.93;7.77;;;;;;;2.79;50.28;96796.03;4996489;28;20212;-72
2021/04/13 10:21:16;;;;;;;7.60;6.77;;;;;;;3.06;49.57;96799.06;5014833;28;20690;-73
2021/04/13 10:24:03;;;;;;;9.43;7.73;;;;;;;2.91;49.88;96787.75;4980761;28;20226;-72
2021/04/13 10:26:47;;;;;;;9.33;7.60;;;;;;;3.25;50.18;96794.72;5012969;28;20183;-72
2021/04/13 10:29:31;;;;;;;8.63;7.77;;;;;;;3.53;48.95;96781.38;5017885;28;20199;-72
2021/04/13 10:31:56;;;;;;;9.80;7.83;;;;;;;3.90;47.70;96782.16;5012709;28;20265;-72
2021/04/13 10:34:42;;;;;;;9.50;8.03;;;;;;;4.37;46.80;96781.47;5014090;28;20748;-72
2021/04/13 10:37:44;;;;;;;8.63;7.30;;;;;;;4.80;43.77;96780.88;4997166;28;20592;-72
2021/04/13 10:40:13;;;;;;;8.13;7.33;;;;;;;4.63;46.92;96786.09;5012730;28;20291;-72
2021/04/13 10:43:02;;;;;;;9.17;7.37;;;;;;;3.94;47.03;96783.66;5014242;28;20211;-72
2021/04/13 10:45:51;;;;;;;9.10;7.80;;;;;;;4.13;49.83;96783.56;5014052;28;20293;-72
2021/04/13 10:48:42;;;;;;;9.30;8.07;;;;;;;4.47;48.13;96777.50;4996176;28;20657;-72
2021/04/13 10:51:31;;;;;;;8.40;7.57;;;;;;;4.67;47.17;96779.84;4996923;28;20196;-73
2021/04/13 10:54:25;;;;;;;8.20;7.40;;;;;;;4.70;46.74;96777.13;4996139;28;20302;-72
2021/04/13 10:57:18;;;;;;;8.23;7.00;;;;;;;4.59;45.37;96776.03;4996507;28;20226;-72
2021/04/13 11:00:10;;;;;;;8.93;7.03;;;;;;;4.37;44.44;96779.72;5010676;28;20202;-72
2021/04/13 11:03:13;;;;;;;7.17;6.47;;;;;;;4.28;41.75;96776.81;5008007;28;20195;-73
2021/04/13 11:05:59;;;;;;;7.53;6.30;;;;;;;4.34;42.18;96779.06;5013174;28;20206;-72
2021/04/13 11:09:08;;;;;;;9.50;6.93;;;;;;;4.41;42.70;96775.25;5012335;28;20183;-72
2021/04/13 11:11:55;;;;;;;7.17;6.07;;;;;;;4.08;42.60;96773.53;4993949;28;20183;-74
2021/04/13 11:14:44;;;;;;;7.17;6.47;;;;;;;4.49;42.60;96765.41;5004111;28;20206;-77
2021/04/13 11:17:25;;;;;;;6.90;6.20;;;;;;;4.83;41.82;96765.25;5011311;28;21918;-72
2021/04/13 11:20:23;;;;;;;8.10;6.33;;;;;;;5.45;42.34;96756.72;4997484;28;20194;-72
2021/04/13 11:23:19;;;;;;;6.90;6.03;;;;;;;5.58;43.10;96757.72;4996987;28;20184;-73
2021/04/13 11:26:24;;;;;;;8.50;7.07;;;;;;;5.48;42.09;96752.25;4999093;28;20279;-72
2021/04/13 11:29:17;;;;;;;6.57;5.93;;;;;;;5.60;44.54;96756.69;5000413;28;20591;-72
2021/04/13 11:32:00;;;;;;;7.30;6.60;;;;;;;5.51;42.39;96751.25;4995297;28;20202;-73
2021/04/13 11:34:37;;;;;;;7.77;5.60;;;;;;;5.19;41.51;96755.59;4997188;28;20206;-70
2021/04/13 11:37:22;;;;;;;6.33;5.37;;;;;;;4.30;40.39;96749.28;4997053;28;20214;-71
2021/04/13 11:39:59;;;;;;;7.07;5.63;;;;;;;3.86;40.70;96749.81;4985154;28;20194;-71
2021/04/13 11:42:29;;;;;;;6.17;5.57;;;;;;;4.08;41.41;96750.41;4993344;28;20191;-72
2021/04/13 11:45:20;;;;;;;6.23;5.00;;;;;;;4.42;41.95;96743.50;4986295;28;20209;-71
2021/04/13 11:47:49;;;;;;;5.73;5.13;;;;;;;4.31;41.73;96743.22;5003731;28;20187;-72
2021/04/13 11:50:25;;;;;;;6.93;5.60;;;;;;;4.71;41.20;96745.34;4988693;28;20653;-72
2021/04/13 11:52:54;;;;;;;5.93;5.33;;;;;;;5.04;43.13;96740.13;4984379;28;20554;-72
2021/04/13 11:55:45;;;;;;;6.83;5.10;;;;;;;5.25;41.66;96735.50;4999043;28;21187;-72
2021/04/13 11:58:23;;;;;;;6.07;5.47;;;;;;;5.25;42.87;96739.81;4989941;28;20705;-72
2021/04/13 12:00:53;;;;;;;6.40;5.53;;;;;;;4.90;42.92;96734.06;4973822;28;20179;-73
2021/04/13 12:03:18;;;;;;;5.70;5.20;;;;;;;4.81;41.60;96740.53;5012753;28;20298;-73
2021/04/13 12:05:49;;;;;;;7.03;5.40;;;;;;;5.23;41.97;96739.91;4997664;28;20266;-73
2021/04/13 12:08:29;;;;;;;5.80;5.00;;;;;;;5.93;41.09;96738.50;5013875;28;20183;-72
2021/04/13 12:10:57;;;;;;;5.63;5.00;;;;;;;5.99;37.75;96742.44;4995083;28;20183;-72